Terminal Aerodrome Forecast
Issued by NWS

Home | Current Version | Previous Version | Text Only | Print | Product List | Glossary Off
Versions: 1 2 3 4 5 6 7 8 9 10 11 12 13 14 15 16 17 18 19 20 21 22 23 24 25 26 27

000
FTUS45 KCYS 271237 AAO
TAFRWL
TAF AMD
KRWL 271237Z 2713/2812 25020G31KT P6SM OVC040
     FM280100 27012KT P6SM OVC050
     FM280600 26005KT P6SM VCSH OVC025
     FM281000 25005KT P6SM OVC050
     FM281100 25006KT P6SM SCT250=

USA.gov is the U.S. government's official web portal to all federal, state and local government web resources and services.